createdAt,value
2018-09-25T00:00:36.878Z,1033.92
2018-09-25T00:01:36.893Z,1033.93
2018-09-25T00:02:36.917Z,1033.94
2018-09-25T00:03:36.929Z,1033.96
2018-09-25T00:04:36.949Z,1033.98
2018-09-25T00:05:36.971Z,1033.96
2018-09-25T00:06:36.985Z,1033.99
2018-09-25T00:07:37.005Z,1033.97
2018-09-25T00:08:37.025Z,1033.96
2018-09-25T00:09:37.039Z,1033.97
2018-09-25T00:10:37.059Z,1033.99
2018-09-25T00:11:37.081Z,1033.99
2018-09-25T00:12:37.093Z,1034.01
2018-09-25T00:13:37.117Z,1033.98
2018-09-25T00:14:37.128Z,1034.01
2018-09-25T00:15:37.147Z,1034.05
2018-09-25T00:16:37.173Z,1034.05
2018-09-25T00:17:37.185Z,1034.09
2018-09-25T00:18:37.207Z,1034.06
2018-09-25T00:19:37.225Z,1034.06
2018-09-25T00:20:37.243Z,1034.04
2018-09-25T00:21:37.259Z,1034.06
2018-09-25T00:22:37.282Z,1034.06
2018-09-25T00:23:37.299Z,1034.07
2018-09-25T00:24:37.312Z,1034.06
2018-09-25T00:25:37.337Z,1034.11
2018-09-25T00:26:37.350Z,1034.11
2018-09-25T00:27:37.372Z,1034.15
2018-09-25T00:28:37.390Z,1034.16
2018-09-25T00:29:37.418Z,1034.18
2018-09-25T00:30:37.433Z,1034.21
2018-09-25T00:31:37.444Z,1034.20
2018-09-25T00:32:37.465Z,1034.20
2018-09-25T00:33:37.484Z,1034.24
2018-09-25T00:34:37.500Z,1034.22
2018-09-25T00:35:37.517Z,1034.19
2018-09-25T00:36:37.539Z,1034.23
2018-09-25T00:37:37.553Z,1034.19
2018-09-25T00:38:37.575Z,1034.23
2018-09-25T00:39:37.585Z,1034.23
2018-09-25T00:40:37.609Z,1034.23
2018-09-25T00:41:37.623Z,1034.27
2018-09-25T00:42:37.648Z,1034.27
2018-09-25T00:43:37.658Z,1034.28
2018-09-25T00:44:37.682Z,1034.24
2018-09-25T00:45:37.697Z,1034.21
2018-09-25T00:46:37.715Z,1034.27
2018-09-25T00:47:37.735Z,1034.25
2018-09-25T00:48:37.758Z,1034.31
2018-09-25T00:49:37.773Z,1034.27
2018-09-25T00:50:37.790Z,1034.32
2018-09-25T00:51:37.813Z,1034.38
2018-09-25T00:52:37.825Z,1034.32
2018-09-25T00:53:37.843Z,1034.32
2018-09-25T00:54:37.863Z,1034.35
2018-09-25T00:55:37.880Z,1034.35
2018-09-25T00:56:37.902Z,1034.35
2018-09-25T00:57:37.921Z,1034.34
2018-09-25T00:58:37.939Z,1034.36
2018-09-25T00:59:37.951Z,1034.31
2018-09-25T01:00:37.973Z,1034.41
2018-09-25T01:01:37.992Z,1034.38
2018-09-25T01:02:38.012Z,1034.40
2018-09-25T01:03:38.024Z,1034.40
2018-09-25T01:04:38.044Z,1034.34
2018-09-25T01:05:38.060Z,1034.36
2018-09-25T01:06:38.083Z,1034.36
2018-09-25T01:07:38.097Z,1034.39
2018-09-25T01:08:38.120Z,1034.38
2018-09-25T01:09:38.133Z,1034.32
2018-09-25T01:10:38.153Z,1034.37
2018-09-25T01:11:38.172Z,1034.39
2018-09-25T01:12:38.187Z,1034.39
2018-09-25T01:13:38.210Z,1034.32
2018-09-25T01:14:38.224Z,1034.43
2018-09-25T01:15:38.245Z,1034.46
2018-09-25T01:16:38.266Z,1034.45
2018-09-25T01:17:38.608Z,1034.47
2018-09-25T01:18:38.302Z,1034.53
2018-09-25T01:19:38.320Z,1034.50
2018-09-25T01:20:38.337Z,1034.49
2018-09-25T01:21:38.352Z,1034.49
2018-09-25T01:22:38.372Z,1034.50
2018-09-25T01:23:38.388Z,1034.52
2018-09-25T01:24:38.412Z,1034.54
2018-09-25T01:25:38.428Z,1034.59
2018-09-25T01:26:38.453Z,1034.59
2018-09-25T01:27:38.460Z,1034.60
2018-09-25T01:28:38.480Z,1034.59
2018-09-25T01:29:38.497Z,1034.65
2018-09-25T01:30:38.516Z,1034.60
2018-09-25T01:31:38.535Z,1034.62
2018-09-25T01:32:38.559Z,1034.60
2018-09-25T01:33:38.576Z,1034.57
2018-09-25T01:34:38.595Z,1034.59
2018-09-25T01:35:38.608Z,1034.60
2018-09-25T01:36:38.626Z,1034.56
2018-09-25T01:37:38.644Z,1034.61
2018-09-25T01:38:38.661Z,1034.55
2018-09-25T01:39:38.677Z,1034.55
2018-09-25T01:40:38.699Z,1034.55
2018-09-25T01:41:38.715Z,1034.53
2018-09-25T01:42:38.782Z,1034.57
2018-09-25T01:43:38.748Z,1034.56
2018-09-25T01:44:38.768Z,1034.60
2018-09-25T01:45:38.794Z,1034.60
2018-09-25T01:46:38.804Z,1034.56
2018-09-25T01:47:38.833Z,1034.59
2018-09-25T01:48:38.842Z,1034.62
2018-09-25T01:49:38.861Z,1034.62
2018-09-25T01:50:38.881Z,1034.64
2018-09-25T01:51:38.893Z,1034.65
2018-09-25T01:52:38.910Z,1034.62
2018-09-25T01:53:38.930Z,1034.67
2018-09-25T01:54:38.949Z,1034.62
2018-09-25T01:55:38.968Z,1034.65
2018-09-25T01:56:39.005Z,1034.63
2018-09-25T01:57:39.006Z,1034.69
2018-09-25T01:58:39.032Z,1034.69
2018-09-25T01:59:39.045Z,1034.73
2018-09-25T02:00:39.061Z,1034.70
2018-09-25T02:01:39.074Z,1034.74
2018-09-25T02:02:39.093Z,1034.66
2018-09-25T02:03:39.114Z,1034.70
2018-09-25T02:04:39.137Z,1034.71
2018-09-25T02:05:39.189Z,1034.71
2018-09-25T02:06:39.170Z,1034.66
2018-09-25T02:07:39.184Z,1034.68
2018-09-25T02:08:39.204Z,1034.66
2018-09-25T02:09:39.222Z,1034.63
2018-09-25T02:10:39.239Z,1034.67
2018-09-25T02:11:39.260Z,1034.64
2018-09-25T02:12:39.273Z,1034.65
2018-09-25T02:13:39.292Z,1034.64
2018-09-25T02:14:39.308Z,1034.70
2018-09-25T02:15:39.326Z,1034.71
2018-09-25T02:16:39.352Z,1034.75
2018-09-25T02:17:39.367Z,1034.77
2018-09-25T02:18:39.387Z,1034.77
2018-09-25T02:19:39.406Z,1034.79
2018-09-25T02:20:39.414Z,1034.78
2018-09-25T02:21:39.436Z,1034.76
2018-09-25T02:22:39.462Z,1034.78
2018-09-25T02:23:39.472Z,1034.79
2018-09-25T02:24:39.490Z,1034.79
2018-09-25T02:25:39.512Z,1034.80
2018-09-25T02:26:39.528Z,1034.78
2018-09-25T02:27:39.542Z,1034.80
2018-09-25T02:28:39.566Z,1034.77
2018-09-25T02:29:39.575Z,1034.81
2018-09-25T02:30:39.597Z,1034.83
2018-09-25T02:31:39.618Z,1034.85
2018-09-25T02:32:39.628Z,1034.85
2018-09-25T02:33:39.650Z,1034.87
2018-09-25T02:34:39.669Z,1034.85
2018-09-25T02:35:39.688Z,1034.86
2018-09-25T02:36:39.715Z,1034.82
2018-09-25T02:37:39.719Z,1034.83
2018-09-25T02:38:39.738Z,1034.88
2018-09-25T02:39:39.758Z,1034.81
2018-09-25T02:40:39.778Z,1034.82
2018-09-25T02:41:39.799Z,1034.83
2018-09-25T02:42:39.812Z,1034.84
2018-09-25T02:43:39.828Z,1034.86
2018-09-25T02:44:39.846Z,1034.89
2018-09-25T02:45:39.862Z,1034.91
2018-09-25T02:46:39.883Z,1034.92
2018-09-25T02:47:39.901Z,1034.93
2018-09-25T02:48:39.919Z,1034.92
2018-09-25T02:49:39.940Z,1034.93
2018-09-25T02:50:39.954Z,1034.94
2018-09-25T02:51:39.973Z,1035.00
2018-09-25T02:52:39.993Z,1035.00
2018-09-25T02:53:40.014Z,1034.99
2018-09-25T02:54:40.026Z,1034.99
2018-09-25T02:55:40.052Z,1035.02
2018-09-25T02:56:40.064Z,1035.01
2018-09-25T02:57:40.082Z,1034.99
2018-09-25T02:58:40.099Z,1035.04
2018-09-25T02:59:40.112Z,1035.03
2018-09-25T03:00:40.137Z,1035.08
2018-09-25T03:01:40.147Z,1035.05
2018-09-25T03:02:40.169Z,1035.13
2018-09-25T03:03:40.185Z,1035.14
2018-09-25T03:04:40.208Z,1035.12
2018-09-25T03:05:40.219Z,1035.19
2018-09-25T03:06:40.234Z,1035.17
2018-09-25T03:07:40.253Z,1035.20
2018-09-25T03:08:40.274Z,1035.17
2018-09-25T03:09:40.299Z,1035.22
2018-09-25T03:10:40.308Z,1035.21
2018-09-25T03:11:40.328Z,1035.17
2018-09-25T03:12:40.344Z,1035.17
2018-09-25T03:13:40.358Z,1035.19
2018-09-25T03:14:40.374Z,1035.19
2018-09-25T03:15:40.399Z,1035.21
2018-09-25T03:16:40.423Z,1035.21
2018-09-25T03:17:40.432Z,1035.19
2018-09-25T03:18:40.446Z,1035.19
2018-09-25T03:19:40.468Z,1035.19
2018-09-25T03:20:40.487Z,1035.21
2018-09-25T03:21:40.508Z,1035.22
2018-09-25T03:22:40.516Z,1035.22
2018-09-25T03:23:40.554Z,1035.25
2018-09-25T03:24:40.557Z,1035.27
2018-09-25T03:25:40.578Z,1035.26
2018-09-25T03:26:40.586Z,1035.23
2018-09-25T03:27:40.607Z,1035.27
2018-09-25T03:28:40.629Z,1035.30
2018-09-25T03:29:40.638Z,1035.31
2018-09-25T03:30:40.656Z,1035.35
2018-09-25T03:31:40.680Z,1035.34
2018-09-25T03:32:40.699Z,1035.35
2018-09-25T03:33:40.723Z,1035.38
2018-09-25T03:34:40.729Z,1035.41
2018-09-25T03:35:40.768Z,1035.43
2018-09-25T03:36:40.764Z,1035.46
2018-09-25T03:37:40.785Z,1035.46
2018-09-25T03:38:40.801Z,1035.47
2018-09-25T03:39:40.816Z,1035.48
2018-09-25T03:40:40.838Z,1035.48
2018-09-25T03:41:40.850Z,1035.52
2018-09-25T03:42:40.875Z,1035.54
2018-09-25T03:43:40.886Z,1035.55
2018-09-25T03:44:40.906Z,1035.56
2018-09-25T03:45:40.922Z,1035.55
2018-09-25T03:46:40.944Z,1035.54
2018-09-25T03:47:40.958Z,1035.56
2018-09-25T03:48:40.977Z,1035.48
2018-09-25T03:49:41.009Z,1035.50
2018-09-25T03:50:41.008Z,1035.50
2018-09-25T03:51:41.024Z,1035.48
2018-09-25T03:52:41.043Z,1035.45
2018-09-25T03:53:41.063Z,1035.47
2018-09-25T03:54:41.082Z,1035.48
2018-09-25T03:55:41.094Z,1035.52
2018-09-25T03:56:41.116Z,1035.52
2018-09-25T03:57:41.134Z,1035.55
2018-09-25T03:58:41.156Z,1035.59
2018-09-25T03:59:41.211Z,1035.64
2018-09-25T04:00:41.184Z,1035.61
2018-09-25T04:01:41.203Z,1035.64
2018-09-25T04:02:41.225Z,1035.66
2018-09-25T04:03:41.237Z,1035.61
2018-09-25T04:04:41.257Z,1035.61
2018-09-25T04:05:41.274Z,1035.59
2018-09-25T04:06:41.292Z,1035.63
2018-09-25T04:07:41.313Z,1035.67
2018-09-25T04:08:41.333Z,1035.60
2018-09-25T04:09:41.344Z,1035.63
2018-09-25T04:10:41.368Z,1035.61
2018-09-25T04:11:41.386Z,1035.65
2018-09-25T04:12:41.396Z,1035.68
2018-09-25T04:13:41.420Z,1035.67
2018-09-25T04:14:41.433Z,1035.69
2018-09-25T04:15:41.448Z,1035.71
2018-09-25T04:16:41.472Z,1035.69
2018-09-25T04:17:41.486Z,1035.74
2018-09-25T04:18:41.501Z,1035.75
2018-09-25T04:19:41.520Z,1035.79
2018-09-25T04:20:41.544Z,1035.82
2018-09-25T04:21:41.559Z,1035.89
2018-09-25T04:22:41.576Z,1035.90
2018-09-25T04:23:41.591Z,1035.92
2018-09-25T04:24:41.619Z,1035.91
2018-09-25T04:25:41.628Z,1035.92
2018-09-25T04:26:41.645Z,1035.94
2018-09-25T04:27:41.663Z,1035.94
2018-09-25T04:28:41.676Z,1035.92
2018-09-25T04:29:41.698Z,1035.90
2018-09-25T04:30:41.716Z,1035.91
2018-09-25T04:31:41.731Z,1035.91
2018-09-25T04:32:41.748Z,1035.91
2018-09-25T04:33:41.759Z,1035.92
2018-09-25T04:34:41.788Z,1035.88
2018-09-25T04:35:41.809Z,1035.92
2018-09-25T04:36:41.819Z,1035.95
2018-09-25T04:37:41.839Z,1035.96
2018-09-25T04:38:41.850Z,1035.99
2018-09-25T04:39:41.870Z,1035.99
2018-09-25T04:40:41.884Z,1035.97
2018-09-25T04:41:41.904Z,1036.00
2018-09-25T04:42:41.927Z,1036.03
2018-09-25T04:43:41.939Z,1036.01
2018-09-25T04:44:41.954Z,1036.03
2018-09-25T04:45:41.974Z,1036.02
2018-09-25T04:46:41.987Z,1036.02
2018-09-25T04:47:42.058Z,1036.02
2018-09-25T04:48:42.025Z,1036.00
2018-09-25T04:49:42.036Z,1036.02
2018-09-25T04:50:42.065Z,1035.99
2018-09-25T04:51:42.073Z,1035.97
2018-09-25T04:52:42.094Z,1035.98
2018-09-25T04:53:42.115Z,1036.01
2018-09-25T04:54:42.127Z,1036.01
2018-09-25T04:55:42.145Z,1036.01
2018-09-25T04:56:42.168Z,1036.04
2018-09-25T04:57:42.185Z,1036.02
2018-09-25T04:58:42.196Z,1036.01
2018-09-25T04:59:42.214Z,1036.01
2018-09-25T05:00:42.231Z,1036.05
2018-09-25T05:01:42.250Z,1036.07
2018-09-25T05:02:42.269Z,1036.07
2018-09-25T05:03:42.289Z,1036.08
2018-09-25T05:04:42.307Z,1036.11
2018-09-25T05:05:42.322Z,1036.12
2018-09-25T05:06:42.380Z,1036.11
2018-09-25T05:07:42.358Z,1036.11
2018-09-25T05:08:42.376Z,1036.15
2018-09-25T05:09:42.387Z,1036.14
2018-09-25T05:10:42.408Z,1036.14
2018-09-25T05:11:42.432Z,1036.15
2018-09-25T05:12:42.442Z,1036.16
2018-09-25T05:13:42.461Z,1036.16
2018-09-25T05:14:42.515Z,1036.16
2018-09-25T05:15:42.495Z,1036.14
2018-09-25T05:16:42.510Z,1036.19
2018-09-25T05:17:42.532Z,1036.18
2018-09-25T05:18:42.593Z,1036.21
2018-09-25T05:19:42.566Z,1036.21
2018-09-25T05:20:42.580Z,1036.23
2018-09-25T05:21:42.601Z,1036.25
2018-09-25T05:22:42.615Z,1036.18
2018-09-25T05:23:42.635Z,1036.20
2018-09-25T05:24:42.667Z,1036.19
2018-09-25T05:25:42.671Z,1036.21
2018-09-25T05:26:42.693Z,1036.20
2018-09-25T05:27:42.707Z,1036.20
2018-09-25T05:28:42.721Z,1036.19
2018-09-25T05:29:42.740Z,1036.21
2018-09-25T05:30:42.759Z,1036.26
2018-09-25T05:31:42.775Z,1036.21
2018-09-25T05:32:42.805Z,1036.25
2018-09-25T05:33:42.810Z,1036.22
2018-09-25T05:34:42.827Z,1036.23
2018-09-25T05:35:42.848Z,1036.22
2018-09-25T05:36:42.860Z,1036.23
2018-09-25T05:37:42.889Z,1036.24
2018-09-25T05:38:42.905Z,1036.24
2018-09-25T05:39:42.919Z,1036.23
2018-09-25T05:40:42.943Z,1036.27
2018-09-25T05:41:42.955Z,1036.25
2018-09-25T05:42:42.970Z,1036.24
2018-09-25T05:43:42.990Z,1036.25
2018-09-25T05:44:43.009Z,1036.27
2018-09-25T05:45:43.023Z,1036.27
2018-09-25T05:46:43.045Z,1036.27
2018-09-25T05:47:43.059Z,1036.34
2018-09-25T05:48:43.186Z,1036.32
2018-09-25T05:49:43.097Z,1036.31
2018-09-25T05:50:43.119Z,1036.29
2018-09-25T05:51:43.129Z,1036.29
2018-09-25T05:52:43.152Z,1036.27
2018-09-25T05:53:43.169Z,1036.33
2018-09-25T05:54:43.189Z,1036.31
2018-09-25T05:55:43.342Z,1036.29
2018-09-25T05:56:43.225Z,1036.28
2018-09-25T05:57:43.241Z,1036.28
2018-09-25T05:58:43.255Z,1036.31
2018-09-25T05:59:43.279Z,1036.32
2018-09-25T06:00:43.297Z,1036.36
2018-09-25T06:01:43.316Z,1036.33
2018-09-25T06:02:43.331Z,1036.35
2018-09-25T06:03:43.349Z,1036.33
2018-09-25T06:04:43.370Z,1036.34
2018-09-25T06:05:43.385Z,1036.36
2018-09-25T06:06:43.402Z,1036.37
2018-09-25T06:07:43.420Z,1036.39
2018-09-25T06:08:43.436Z,1036.37
2018-09-25T06:09:43.512Z,1036.44
2018-09-25T06:10:43.477Z,1036.41
2018-09-25T06:11:43.492Z,1036.43
2018-09-25T06:12:43.512Z,1036.43
2018-09-25T06:13:43.527Z,1036.44
2018-09-25T06:14:43.544Z,1036.45
2018-09-25T06:15:43.630Z,1036.45
2018-09-25T06:16:43.579Z,1036.43
2018-09-25T06:17:43.599Z,1036.40
2018-09-25T06:18:43.654Z,1036.43
2018-09-25T06:19:43.633Z,1036.41
2018-09-25T06:20:43.659Z,1036.43
2018-09-25T06:21:43.682Z,1036.45
2018-09-25T06:22:43.686Z,1036.46
2018-09-25T06:23:43.717Z,1036.46
2018-09-25T06:24:43.733Z,1036.47
2018-09-25T06:25:43.743Z,1036.49
2018-09-25T06:26:43.765Z,1036.49
2018-09-25T06:27:43.781Z,1036.52
2018-09-25T06:28:43.829Z,1036.52
2018-09-25T06:29:43.817Z,1036.48
2018-09-25T06:30:43.843Z,1036.51
2018-09-25T06:31:43.853Z,1036.56
2018-09-25T06:32:43.872Z,1036.53
2018-09-25T06:33:43.887Z,1036.57
2018-09-25T06:34:43.924Z,1036.55
2018-09-25T06:35:43.929Z,1036.61
2018-09-25T06:36:43.943Z,1036.58
2018-09-25T06:37:43.966Z,1036.61
2018-09-25T06:38:43.998Z,1036.63
2018-09-25T06:39:43.995Z,1036.69
2018-09-25T06:40:44.041Z,1036.69
2018-09-25T06:41:44.035Z,1036.73
2018-09-25T06:42:44.055Z,1036.77
2018-09-25T06:43:44.066Z,1036.76
2018-09-25T06:44:44.090Z,1036.83
2018-09-25T06:45:44.109Z,1036.80
2018-09-25T06:46:44.125Z,1036.81
2018-09-25T06:47:44.151Z,1036.85
2018-09-25T06:48:44.165Z,1036.85
2018-09-25T06:49:44.177Z,1036.82
2018-09-25T06:50:44.195Z,1036.88
2018-09-25T06:51:44.217Z,1036.88
2018-09-25T06:52:44.232Z,1036.91
2018-09-25T06:53:44.251Z,1036.93
2018-09-25T06:54:44.305Z,1036.93
2018-09-25T06:55:44.290Z,1036.93
2018-09-25T06:56:44.303Z,1036.96
2018-09-25T06:57:44.330Z,1036.98
2018-09-25T06:58:44.343Z,1036.98
2018-09-25T06:59:44.363Z,1036.99
2018-09-25T07:00:44.411Z,1037.00
2018-09-25T07:01:44.395Z,1036.98
2018-09-25T07:02:44.417Z,1037.02
2018-09-25T07:03:44.435Z,1037.04
2018-09-25T07:04:44.453Z,1037.06
2018-09-25T07:05:44.473Z,1037.07
2018-09-25T07:06:44.491Z,1037.05
2018-09-25T07:07:44.503Z,1037.09
2018-09-25T07:08:44.529Z,1037.10
2018-09-25T07:09:44.628Z,1037.13
2018-09-25T07:10:44.695Z,1037.18
2018-09-25T07:11:44.580Z,1037.20
2018-09-25T07:12:44.603Z,1037.20
2018-09-25T07:13:44.616Z,1037.21
2018-09-25T07:14:44.638Z,1037.23
2018-09-25T07:15:44.665Z,1037.25
2018-09-25T07:16:44.702Z,1037.28
2018-09-25T07:17:44.774Z,1037.27
2018-09-25T07:18:44.704Z,1037.29
2018-09-25T07:19:44.726Z,1037.32
2018-09-25T07:20:44.743Z,1037.34
2018-09-25T07:21:44.757Z,1037.38
2018-09-25T07:22:44.864Z,1037.32
2018-09-25T07:23:44.800Z,1037.36
2018-09-25T07:24:44.976Z,1037.35
2018-09-25T07:25:44.833Z,1037.38
2018-09-25T07:26:44.852Z,1037.35
2018-09-25T07:27:44.879Z,1037.36
2018-09-25T07:28:44.890Z,1037.37
2018-09-25T07:29:44.908Z,1037.39
2018-09-25T07:30:44.925Z,1037.43
2018-09-25T07:31:44.948Z,1037.44
2018-09-25T07:32:44.978Z,1037.43
2018-09-25T07:33:44.974Z,1037.45
2018-09-25T07:34:44.999Z,1037.41
2018-09-25T07:35:45.026Z,1037.43
2018-09-25T07:36:45.038Z,1037.43
2018-09-25T07:37:45.064Z,1037.48
2018-09-25T07:38:45.073Z,1037.49
2018-09-25T07:39:45.196Z,1037.50
2018-09-25T07:40:45.113Z,1037.48
2018-09-25T07:41:45.135Z,1037.49
2018-09-25T07:42:45.157Z,1037.51
2018-09-25T07:43:45.167Z,1037.53
2018-09-25T07:44:45.187Z,1037.54
2018-09-25T07:45:45.208Z,1037.54
2018-09-25T07:46:45.225Z,1037.59
2018-09-25T07:47:45.238Z,1037.57
2018-09-25T07:48:45.263Z,1037.58
2018-09-25T07:49:45.279Z,1037.56
2018-09-25T07:50:45.297Z,1037.59
2018-09-25T07:51:45.319Z,1037.62
2018-09-25T07:52:45.334Z,1037.63
2018-09-25T07:53:45.356Z,1037.64
2018-09-25T07:54:45.378Z,1037.65
2018-09-25T07:55:45.518Z,1037.66
2018-09-25T07:56:45.417Z,1037.67
2018-09-25T07:57:45.439Z,1037.71
2018-09-25T07:58:45.451Z,1037.68
2018-09-25T07:59:45.474Z,1037.70
2018-09-25T08:00:45.493Z,1037.67
2018-09-25T08:01:45.511Z,1037.71
2018-09-25T08:02:45.529Z,1037.70
2018-09-25T08:03:45.550Z,1037.73
2018-09-25T08:04:45.564Z,1037.71
2018-09-25T08:05:45.589Z,1037.74
2018-09-25T08:06:45.604Z,1037.73
2018-09-25T08:07:45.626Z,1037.74
2018-09-25T08:08:45.641Z,1037.77
2018-09-25T08:09:45.657Z,1037.79
2018-09-25T08:10:45.686Z,1037.83
2018-09-25T08:11:45.702Z,1037.75
2018-09-25T08:12:45.715Z,1037.81
2018-09-25T08:13:45.735Z,1037.80
2018-09-25T08:14:45.753Z,1037.85
2018-09-25T08:15:45.769Z,1037.85
2018-09-25T08:16:45.789Z,1037.85
2018-09-25T08:17:45.813Z,1037.90
2018-09-25T08:18:45.830Z,1037.89
2018-09-25T08:19:45.844Z,1037.97
2018-09-25T08:20:45.870Z,1037.95
2018-09-25T08:21:45.889Z,1037.95
2018-09-25T08:22:45.902Z,1037.96
2018-09-25T08:23:45.927Z,1038.00
2018-09-25T08:24:45.941Z,1037.99
2018-09-25T08:25:45.964Z,1038.00
2018-09-25T08:26:45.977Z,1038.03
2018-09-25T08:27:46.005Z,1038.03
2018-09-25T08:28:46.018Z,1038.03
2018-09-25T08:29:46.126Z,1038.05
2018-09-25T08:30:46.060Z,1038.03
2018-09-25T08:31:46.104Z,1038.05
2018-09-25T08:32:46.102Z,1038.11
2018-09-25T08:33:46.109Z,1038.09
2018-09-25T08:34:46.132Z,1038.15
2018-09-25T08:35:46.156Z,1038.17
2018-09-25T08:36:46.175Z,1038.19
2018-09-25T08:37:46.198Z,1038.19
2018-09-25T08:38:46.239Z,1038.24
2018-09-25T08:39:46.228Z,1038.20
2018-09-25T08:40:46.245Z,1038.25
2018-09-25T08:41:46.268Z,1038.26
2018-09-25T08:42:46.284Z,1038.26
2018-09-25T08:43:46.323Z,1038.25
2018-09-25T08:44:46.326Z,1038.26
2018-09-25T08:45:46.384Z,1038.23
2018-09-25T08:46:46.359Z,1038.23
2018-09-25T08:47:46.381Z,1038.26
2018-09-25T08:48:46.402Z,1038.26
2018-09-25T08:49:46.421Z,1038.30
2018-09-25T08:50:46.436Z,1038.30
2018-09-25T08:51:46.453Z,1038.30
2018-09-25T08:52:46.478Z,1038.31
2018-09-25T08:53:46.493Z,1038.33
2018-09-25T08:54:46.515Z,1038.31
2018-09-25T08:55:46.557Z,1038.34
2018-09-25T08:56:46.562Z,1038.36
2018-09-25T08:57:46.572Z,1038.40
2018-09-25T08:58:46.596Z,1038.36
2018-09-25T08:59:46.612Z,1038.36
2018-09-25T09:00:46.646Z,1038.33
2018-09-25T09:01:46.654Z,1038.31
2018-09-25T09:02:46.670Z,1038.30
2018-09-25T09:03:46.691Z,1038.34
2018-09-25T09:04:46.712Z,1038.33
2018-09-25T09:05:46.728Z,1038.37
2018-09-25T09:06:46.746Z,1038.34
2018-09-25T09:07:46.765Z,1038.31
2018-09-25T09:08:46.786Z,1038.33
2018-09-25T09:09:46.812Z,1038.33
2018-09-25T09:10:46.829Z,1038.32
2018-09-25T09:11:46.844Z,1038.34
2018-09-25T09:12:46.876Z,1038.33
2018-09-25T09:13:46.882Z,1038.36
2018-09-25T09:14:46.904Z,1038.35
2018-09-25T09:15:46.924Z,1038.37
2018-09-25T09:16:46.946Z,1038.38
2018-09-25T09:17:46.967Z,1038.40
2018-09-25T09:18:46.986Z,1038.37
2018-09-25T09:19:47.075Z,1038.44
2018-09-25T09:20:47.024Z,1038.43
2018-09-25T09:21:47.039Z,1038.40
2018-09-25T09:22:47.065Z,1038.38
2018-09-25T09:23:47.080Z,1038.44
2018-09-25T09:24:47.099Z,1038.45
2018-09-25T09:25:47.120Z,1038.47
2018-09-25T09:26:47.140Z,1038.49
2018-09-25T09:27:47.163Z,1038.49
2018-09-25T09:28:47.180Z,1038.42
2018-09-25T09:29:47.202Z,1038.44
2018-09-25T09:30:47.216Z,1038.44
2018-09-25T09:31:47.240Z,1038.47
2018-09-25T09:32:47.265Z,1038.50
2018-09-25T09:33:47.272Z,1038.53
2018-09-25T09:34:47.302Z,1038.49
2018-09-25T09:35:47.316Z,1038.46
2018-09-25T09:36:47.337Z,1038.42
2018-09-25T09:37:47.358Z,1038.42
2018-09-25T09:38:47.372Z,1038.42
2018-09-25T09:39:47.400Z,1038.44
2018-09-25T09:40:47.426Z,1038.45
2018-09-25T09:41:47.626Z,1038.43
2018-09-25T09:42:47.451Z,1038.42
2018-09-25T09:43:47.472Z,1038.38
2018-09-25T09:44:47.497Z,1038.40
2018-09-25T09:45:47.518Z,1038.41
2018-09-25T09:46:47.532Z,1038.40
2018-09-25T09:47:47.556Z,1038.39
2018-09-25T09:48:47.574Z,1038.42
2018-09-25T09:49:47.590Z,1038.38
2018-09-25T09:50:47.614Z,1038.34
2018-09-25T09:51:47.635Z,1038.47
2018-09-25T09:52:47.652Z,1038.49
2018-09-25T09:53:47.670Z,1038.53
2018-09-25T09:54:47.690Z,1038.49
2018-09-25T09:55:47.708Z,1038.51
2018-09-25T09:56:47.732Z,1038.53
2018-09-25T09:57:47.751Z,1038.51
2018-09-25T09:58:47.772Z,1038.53
2018-09-25T09:59:47.791Z,1038.50
2018-09-25T10:00:47.812Z,1038.51
2018-09-25T10:01:47.836Z,1038.49
2018-09-25T10:02:47.862Z,1038.50
2018-09-25T10:03:47.870Z,1038.55
2018-09-25T10:04:47.946Z,1038.58
2018-09-25T10:05:47.910Z,1038.61
2018-09-25T10:06:48.000Z,1038.64
2018-09-25T10:07:47.957Z,1038.66
2018-09-25T10:08:47.979Z,1038.66
2018-09-25T10:09:47.989Z,1038.65
2018-09-25T10:10:48.012Z,1038.69
2018-09-25T10:11:48.035Z,1038.69
2018-09-25T10:12:48.055Z,1038.70
2018-09-25T10:13:48.077Z,1038.69
2018-09-25T10:14:48.100Z,1038.68
2018-09-25T10:15:48.122Z,1038.70
2018-09-25T10:16:48.138Z,1038.66
2018-09-25T10:17:48.162Z,1038.69
2018-09-25T10:18:48.234Z,1038.63
2018-09-25T10:19:48.199Z,1038.63
2018-09-25T10:20:48.219Z,1038.63
2018-09-25T10:21:48.246Z,1038.63
2018-09-25T10:22:48.264Z,1038.64
2018-09-25T10:23:48.285Z,1038.63
2018-09-25T10:24:48.302Z,1038.64
2018-09-25T10:25:48.324Z,1038.66
2018-09-25T10:26:48.344Z,1038.64
2018-09-25T10:27:48.373Z,1038.66
2018-09-25T10:28:48.388Z,1038.71
2018-09-25T10:29:48.414Z,1038.74
2018-09-25T10:30:48.424Z,1038.68
2018-09-25T10:31:48.447Z,1038.66
2018-09-25T10:32:48.484Z,1038.67
2018-09-25T10:33:48.527Z,1038.60
2018-09-25T10:34:48.515Z,1038.73
2018-09-25T10:35:48.533Z,1038.71
2018-09-25T10:36:48.565Z,1038.72
2018-09-25T10:37:48.574Z,1038.53
2018-09-25T10:38:48.605Z,1038.55
2018-09-25T10:39:48.621Z,1038.56
2018-09-25T10:40:48.668Z,1038.51
2018-09-25T10:41:48.666Z,1038.56
2018-09-25T10:42:48.686Z,1038.77
2018-09-25T10:43:48.715Z,1038.81
2018-09-25T10:44:48.736Z,1038.89
2018-09-25T10:45:48.751Z,1038.90
2018-09-25T10:46:48.771Z,1038.69
2018-09-25T10:47:48.799Z,1038.79
2018-09-25T10:48:48.816Z,1038.92
2018-09-25T10:49:48.893Z,1039.01
2018-09-25T10:50:48.861Z,1039.30
2018-09-25T10:51:48.884Z,1039.34
2018-09-25T10:52:48.906Z,1039.32
2018-09-25T10:53:48.921Z,1039.18
2018-09-25T10:54:48.947Z,1039.35
2018-09-25T10:55:49.108Z,1039.32
2018-09-25T10:56:48.995Z,1038.81
2018-09-25T10:57:49.039Z,1038.79
2018-09-25T10:58:49.042Z,1039.10
2018-09-25T10:59:49.071Z,1038.78
2018-09-25T11:00:49.092Z,1039.22
2018-09-25T11:01:49.121Z,1039.30
2018-09-25T11:02:49.205Z,1038.78
2018-09-25T11:03:49.167Z,1038.70
2018-09-25T11:04:49.189Z,1038.69
2018-09-25T11:05:49.214Z,1038.76
2018-09-25T11:06:49.229Z,1038.87
2018-09-25T11:07:49.274Z,1039.13
2018-09-25T11:08:49.296Z,1038.75
2018-09-25T11:09:49.318Z,1039.21
2018-09-25T11:10:49.342Z,1038.80
2018-09-25T11:11:49.368Z,1038.65
2018-09-25T11:12:49.394Z,1038.70
2018-09-25T11:13:49.414Z,1038.63
2018-09-25T11:14:49.440Z,1038.64
2018-09-25T11:15:49.466Z,1038.66
2018-09-25T11:16:49.488Z,1038.59
2018-09-25T11:17:49.537Z,1038.62
2018-09-25T11:18:49.538Z,1038.64
2018-09-25T11:19:49.564Z,1038.63
2018-09-25T11:20:49.594Z,1038.61
2018-09-25T11:21:49.614Z,1038.66
2018-09-25T11:22:49.637Z,1038.63
2018-09-25T11:23:49.658Z,1038.59
2018-09-25T11:24:49.685Z,1038.55
2018-09-25T11:25:49.715Z,1038.57
2018-09-25T11:26:49.734Z,1038.78
2018-09-25T11:27:49.763Z,1038.58
2018-09-25T11:28:49.787Z,1038.58
2018-09-25T11:29:49.807Z,1038.55
2018-09-25T11:30:49.829Z,1038.60
2018-09-25T11:31:49.864Z,1038.62
2018-09-25T11:32:49.881Z,1038.57
2018-09-25T11:33:49.901Z,1038.61
2018-09-25T11:34:49.924Z,1038.63
2018-09-25T11:35:49.957Z,1038.70
2018-09-25T11:36:49.971Z,1039.14
2018-09-25T11:37:50.004Z,1038.73
2018-09-25T11:38:50.017Z,1038.75
2018-09-25T11:39:50.056Z,1038.73
2018-09-25T11:40:50.115Z,1038.70
2018-09-25T11:41:50.099Z,1038.67
2018-09-25T11:42:50.116Z,1038.62
2018-09-25T11:43:50.141Z,1038.65
2018-09-25T11:44:50.167Z,1038.64
2018-09-25T11:45:50.205Z,1038.67
2018-09-25T11:46:50.342Z,1038.67
2018-09-25T11:47:50.238Z,1038.69
2018-09-25T11:48:50.261Z,1039.22
2018-09-25T11:49:50.372Z,1039.30
2018-09-25T11:50:50.308Z,1039.32
2018-09-25T11:51:50.341Z,1039.02
2018-09-25T11:52:50.383Z,1038.76
2018-09-25T11:53:50.388Z,1038.65
2018-09-25T11:54:50.413Z,1038.79
2018-09-25T11:55:50.434Z,1039.11
2018-09-25T11:56:50.463Z,1039.29
2018-09-25T11:57:50.498Z,1039.31
2018-09-25T11:58:50.511Z,1039.34
2018-09-25T11:59:50.540Z,1038.99
2018-09-25T12:00:50.571Z,1039.23
2018-09-25T12:01:50.591Z,1039.25
2018-09-25T12:02:50.619Z,1039.21
2018-09-25T12:03:50.643Z,1039.29
2018-09-25T12:04:50.669Z,1039.29
2018-09-25T12:05:50.701Z,1039.31